createdAt,value
2022-11-23T00:00:44.922Z,97.70
2022-11-23T00:03:16.244Z,97.80
2022-11-23T00:05:43.485Z,97.80
2022-11-23T00:08:10.754Z,97.80
2022-11-23T00:10:38.145Z,97.80
2022-11-23T00:13:05.385Z,97.80
2022-11-23T00:15:32.617Z,97.80
2022-11-23T00:18:02.694Z,97.80
2022-11-23T00:20:29.938Z,97.80
2022-11-23T00:22:57.458Z,97.70
2022-11-23T00:25:24.758Z,97.80
2022-11-23T00:27:52.016Z,97.80
2022-11-23T00:30:19.239Z,97.80
2022-11-23T00:32:46.705Z,97.70
2022-11-23T00:35:13.996Z,97.70
2022-11-23T00:37:41.252Z,97.70
2022-11-23T00:40:09.382Z,97.70
2022-11-23T00:42:38.331Z,97.70
2022-11-23T00:45:06.435Z,97.80
2022-11-23T00:47:33.679Z,97.90
2022-11-23T00:50:00.941Z,97.80
2022-11-23T00:52:28.272Z,97.90
2022-11-23T00:54:55.500Z,98.00
2022-11-23T00:57:22.896Z,98.00
2022-11-23T00:59:50.145Z,98.10
2022-11-23T01:02:17.401Z,98.10
2022-11-23T01:04:44.674Z,98.10
2022-11-23T01:07:12.275Z,98.10
2022-11-23T01:09:40.516Z,98.20
2022-11-23T01:12:08.081Z,98.20
2022-11-23T01:14:35.519Z,98.20
2022-11-23T01:17:05.446Z,98.20
2022-11-23T01:19:35.463Z,98.30
2022-11-23T01:22:02.857Z,98.30
2022-11-23T01:24:30.336Z,98.40
2022-11-23T01:26:57.730Z,98.40
2022-11-23T01:29:27.341Z,98.40
2022-11-23T01:31:54.569Z,98.50
2022-11-23T01:34:22.281Z,98.50
2022-11-23T01:36:50.721Z,98.60
2022-11-23T01:39:18.097Z,98.70
2022-11-23T01:41:46.413Z,98.70
2022-11-23T01:44:32.258Z,98.70
2022-11-23T01:47:01.909Z,98.60
2022-11-23T01:49:35.560Z,98.70
2022-11-23T01:52:12.917Z,98.50
2022-11-23T01:54:56.635Z,98.60
2022-11-23T01:57:34.717Z,98.50
2022-11-23T02:00:02.307Z,98.50
2022-11-23T02:02:47.778Z,98.50
2022-11-23T02:05:18.569Z,98.40
2022-11-23T02:07:48.109Z,98.30
2022-11-23T02:10:16.461Z,98.30
2022-11-23T02:12:43.765Z,98.30
2022-11-23T02:15:13.044Z,98.30
2022-11-23T02:17:43.633Z,98.30
2022-11-23T02:20:13.999Z,98.40
2022-11-23T02:23:08.347Z,98.40
2022-11-23T02:25:35.560Z,98.60
2022-11-23T02:28:03.673Z,98.50
2022-11-23T02:30:32.647Z,98.50
2022-11-23T02:32:59.909Z,98.50
2022-11-23T02:35:27.257Z,98.50
2022-11-23T02:37:54.798Z,98.50
2022-11-23T02:40:33.861Z,98.50
2022-11-23T02:43:01.609Z,98.50
2022-11-23T02:45:29.494Z,98.60
2022-11-23T02:47:56.988Z,98.60
2022-11-23T02:50:24.339Z,98.60
2022-11-23T02:52:51.598Z,98.60
2022-11-23T02:55:19.279Z,98.70
2022-11-23T02:57:47.575Z,98.60
2022-11-23T03:00:17.427Z,98.70
2022-11-23T03:02:45.022Z,98.60
2022-11-23T03:05:12.874Z,98.60
2022-11-23T03:07:40.241Z,98.60
2022-11-23T03:10:08.373Z,98.70
2022-11-23T03:12:35.891Z,98.80
2022-11-23T03:15:04.344Z,98.70
2022-11-23T03:17:33.519Z,98.80
2022-11-23T03:20:01.056Z,98.80
2022-11-23T03:22:30.627Z,98.80
2022-11-23T03:24:58.939Z,98.80
2022-11-23T03:27:26.579Z,98.90
2022-11-23T03:29:54.110Z,98.90
2022-11-23T03:32:21.897Z,99.00
2022-11-23T03:34:53.399Z,99.00
2022-11-23T03:37:22.476Z,98.90
2022-11-23T03:39:49.997Z,99.00
2022-11-23T03:42:43.057Z,99.00
2022-11-23T03:45:10.901Z,99.10
2022-11-23T03:47:38.290Z,99.00
2022-11-23T03:50:06.270Z,99.00
2022-11-23T03:52:33.609Z,98.90
2022-11-23T03:55:01.173Z,99.00
2022-11-23T03:57:28.497Z,99.00
2022-11-23T03:59:56.093Z,99.00
2022-11-23T04:02:23.544Z,99.00
2022-11-23T04:05:01.972Z,98.90
2022-11-23T04:07:50.374Z,98.80
2022-11-23T04:10:19.336Z,98.80
2022-11-23T04:13:21.980Z,98.80
2022-11-23T04:15:50.262Z,98.90
2022-11-23T04:18:18.391Z,99.20
2022-11-23T04:20:46.498Z,99.00
2022-11-23T04:23:13.928Z,99.00
2022-11-23T04:25:42.987Z,99.40
2022-11-23T04:28:10.611Z,99.10
2022-11-23T04:30:38.861Z,99.10
2022-11-23T04:33:06.983Z,99.10
2022-11-23T04:35:36.238Z,99.10
2022-11-23T04:38:03.628Z,99.20
2022-11-23T04:40:32.333Z,99.10
2022-11-23T04:43:03.701Z,99.40
2022-11-23T04:45:41.037Z,99.40
2022-11-23T04:48:15.103Z,99.20
2022-11-23T04:50:46.641Z,99.60
2022-11-23T04:53:18.050Z,99.40
2022-11-23T04:55:47.625Z,99.40
2022-11-23T04:58:16.543Z,99.50
2022-11-23T05:00:44.183Z,99.40
2022-11-23T05:03:13.615Z,99.50
2022-11-23T05:05:42.874Z,99.60
2022-11-23T05:08:10.708Z,99.80
2022-11-23T05:10:47.479Z,99.80
2022-11-23T05:13:14.952Z,99.90
2022-11-23T05:15:43.286Z,99.90
2022-11-23T05:18:14.816Z,99.90
2022-11-23T05:20:42.521Z,99.90
2022-11-23T05:23:11.227Z,99.90
2022-11-23T05:25:41.799Z,99.80
2022-11-23T05:28:38.895Z,99.70
2022-11-23T05:31:05.168Z,99.60
2022-11-23T05:33:32.658Z,99.80
2022-11-23T05:36:00.527Z,99.60
2022-11-23T05:38:36.536Z,99.50
2022-11-23T05:41:09.267Z,99.40
2022-11-23T05:43:39.621Z,99.50
2022-11-23T05:46:09.655Z,99.30
2022-11-23T05:48:38.681Z,99.30
2022-11-23T05:51:10.897Z,99.40
2022-11-23T05:53:43.909Z,99.50
2022-11-23T05:56:19.822Z,99.50
2022-11-23T05:58:59.505Z,99.30
2022-11-23T06:01:26.818Z,99.30
2022-11-23T06:03:59.852Z,99.30
2022-11-23T06:06:29.807Z,99.50
2022-11-23T06:08:57.338Z,99.60
2022-11-23T06:11:24.675Z,99.60
2022-11-23T06:13:52.343Z,99.60
2022-11-23T06:16:20.052Z,99.30
2022-11-23T06:18:59.449Z,99.30
2022-11-23T06:21:26.701Z,99.10
2022-11-23T06:23:53.941Z,99.20
2022-11-23T06:26:22.562Z,99.20
2022-11-23T06:28:49.795Z,99.20
2022-11-23T06:31:18.387Z,99.30
2022-11-23T06:33:45.614Z,99.30
2022-11-23T06:36:13.789Z,99.30
2022-11-23T06:38:46.861Z,99.40
2022-11-23T06:41:17.996Z,99.40
2022-11-23T06:43:48.079Z,99.30
2022-11-23T06:46:24.513Z,99.30
2022-11-23T06:48:51.926Z,99.30
2022-11-23T06:51:19.189Z,99.10
2022-11-23T06:53:48.394Z,99.10
2022-11-23T06:56:17.429Z,99.00
2022-11-23T06:58:46.269Z,99.00
2022-11-23T07:01:19.006Z,99.10
2022-11-23T07:03:53.785Z,99.20
2022-11-23T07:06:34.400Z,99.20
2022-11-23T07:09:07.884Z,99.20
2022-11-23T07:12:06.957Z,99.10
2022-11-23T07:14:35.219Z,99.10
2022-11-23T07:17:02.551Z,99.20
2022-11-23T07:19:30.005Z,99.20
2022-11-23T07:21:59.802Z,99.20
2022-11-23T07:24:27.056Z,99.30
2022-11-23T07:26:54.347Z,99.30
2022-11-23T07:29:21.680Z,99.30
2022-11-23T07:31:49.314Z,99.20
2022-11-23T07:34:16.619Z,99.10
2022-11-23T07:36:44.458Z,99.00
2022-11-23T07:39:11.890Z,98.90
2022-11-23T07:41:39.162Z,98.80
2022-11-23T07:44:09.417Z,98.80
2022-11-23T07:46:37.078Z,98.80
2022-11-23T07:49:04.536Z,98.70
2022-11-23T07:51:31.989Z,98.70
2022-11-23T07:53:59.317Z,98.70
2022-11-23T07:56:26.616Z,98.60
2022-11-23T07:58:53.985Z,98.80
2022-11-23T08:01:21.272Z,98.70
2022-11-23T08:03:49.299Z,98.60
2022-11-23T08:06:17.113Z,98.60
2022-11-23T08:08:44.914Z,98.60
2022-11-23T08:11:14.779Z,98.50
2022-11-23T08:13:42.046Z,98.50
2022-11-23T08:16:09.546Z,98.60
2022-11-23T08:18:37.085Z,98.60
2022-11-23T08:21:04.566Z,98.60
2022-11-23T08:23:31.780Z,98.80
2022-11-23T08:25:59.163Z,98.80
2022-11-23T08:28:26.682Z,98.90
2022-11-23T08:30:54.302Z,98.70
2022-11-23T08:33:21.629Z,98.60
2022-11-23T08:35:48.855Z,98.80
2022-11-23T08:38:16.227Z,98.30
2022-11-23T08:40:43.508Z,98.30
2022-11-23T08:43:10.895Z,98.30
2022-11-23T08:45:38.218Z,98.10
2022-11-23T08:48:06.007Z,98.10
2022-11-23T08:50:34.649Z,98.10
2022-11-23T08:53:02.046Z,97.90
2022-11-23T08:55:30.061Z,97.90
2022-11-23T08:58:00.795Z,97.70
2022-11-23T09:00:29.566Z,97.70
2022-11-23T09:02:59.133Z,97.60
2022-11-23T09:05:30.247Z,97.60
2022-11-23T09:08:01.181Z,97.50
2022-11-23T09:10:28.911Z,97.50
2022-11-23T09:12:56.334Z,97.80
2022-11-23T09:15:23.670Z,97.70
2022-11-23T09:17:50.895Z,97.80
2022-11-23T09:20:18.511Z,97.80
2022-11-23T09:22:51.412Z,97.70
2022-11-23T09:25:19.060Z,97.80
2022-11-23T09:27:46.323Z,97.80
2022-11-23T09:30:14.437Z,97.80
2022-11-23T09:32:41.811Z,97.80
2022-11-23T09:35:09.456Z,97.90
2022-11-23T09:37:36.990Z,97.70
2022-11-23T09:40:04.933Z,97.70
2022-11-23T09:43:07.706Z,97.70
2022-11-23T09:45:51.093Z,97.70
2022-11-23T09:48:21.161Z,97.40
2022-11-23T09:50:50.927Z,97.30
2022-11-23T09:53:49.585Z,97.30
2022-11-23T09:56:30.008Z,97.50
2022-11-23T09:59:06.277Z,97.10
2022-11-23T10:01:33.767Z,96.90
2022-11-23T10:04:01.523Z,96.70
2022-11-23T10:06:37.362Z,97.00
2022-11-23T10:09:13.880Z,97.20
2022-11-23T10:11:53.390Z,96.90
2022-11-23T10:14:39.096Z,96.80
2022-11-23T10:17:42.342Z,96.90
2022-11-23T10:20:48.571Z,96.90
2022-11-23T10:23:24.454Z,96.80
2022-11-23T10:25:52.645Z,96.80
2022-11-23T10:28:21.933Z,96.90
2022-11-23T10:31:13.610Z,96.80
2022-11-23T10:34:11.613Z,96.90
2022-11-23T10:36:39.652Z,96.60
2022-11-23T10:39:19.927Z,96.50
2022-11-23T10:41:47.640Z,96.80
2022-11-23T10:44:34.453Z,96.40
2022-11-23T10:47:02.366Z,95.90
2022-11-23T10:49:35.775Z,96.00
2022-11-23T10:52:05.918Z,96.00
2022-11-23T10:54:35.355Z,96.10
2022-11-23T10:57:22.046Z,96.00
2022-11-23T11:00:13.505Z,96.00
2022-11-23T11:02:45.862Z,96.10
2022-11-23T11:05:46.423Z,96.00
2022-11-23T11:08:16.914Z,95.80
2022-11-23T11:10:50.141Z,95.80
2022-11-23T11:13:44.593Z,95.80
2022-11-23T11:16:26.601Z,95.50
2022-11-23T11:18:53.999Z,95.40
2022-11-23T11:21:35.985Z,95.60
2022-11-23T11:24:05.076Z,95.40
2022-11-23T11:26:35.904Z,95.30
2022-11-23T11:29:06.818Z,95.00
2022-11-23T11:31:57.891Z,95.10
2022-11-23T11:34:46.444Z,95.10
2022-11-23T11:37:32.577Z,95.30
2022-11-23T11:40:21.767Z,95.50
2022-11-23T11:43:07.197Z,95.50
2022-11-23T11:45:54.438Z,95.50
2022-11-23T11:48:40.894Z,95.40
2022-11-23T11:51:30.184Z,95.30
2022-11-23T11:54:21.826Z,95.30
2022-11-23T11:56:55.735Z,94.90
2022-11-23T11:59:45.261Z,94.70
2022-11-23T12:02:27.699Z,94.70
2022-11-23T12:05:14.536Z,94.60
2022-11-23T12:08:02.188Z,94.70
2022-11-23T12:10:35.637Z,94.50
2022-11-23T12:13:03.157Z,94.50
2022-11-23T12:15:50.582Z,94.30
2022-11-23T12:18:27.249Z,94.00
2022-11-23T12:21:06.911Z,94.30
2022-11-23T12:23:49.415Z,94.20
2022-11-23T12:26:16.752Z,93.90
2022-11-23T12:28:53.092Z,94.00
2022-11-23T12:31:48.538Z,93.80
2022-11-23T12:34:38.127Z,93.90
2022-11-23T12:37:08.509Z,94.10
2022-11-23T12:39:35.840Z,94.20
2022-11-23T12:42:26.116Z,94.20
2022-11-23T12:45:24.141Z,93.90
2022-11-23T12:48:31.905Z,94.10
2022-11-23T12:51:27.064Z,94.30
2022-11-23T12:54:03.329Z,94.30
2022-11-23T12:57:00.155Z,94.10
2022-11-23T13:00:00.541Z,94.10
2022-11-23T13:02:27.875Z,94.00
2022-11-23T13:05:20.460Z,93.80
2022-11-23T13:08:20.651Z,93.70
2022-11-23T13:11:07.308Z,93.70
2022-11-23T13:13:55.619Z,93.60
2022-11-23T13:16:31.955Z,93.60
2022-11-23T13:19:08.373Z,93.50
2022-11-23T13:21:43.892Z,93.40
2022-11-23T13:24:34.663Z,93.60
2022-11-23T13:27:31.640Z,93.60
2022-11-23T13:30:07.121Z,93.30
2022-11-23T13:32:40.433Z,93.40
2022-11-23T13:35:17.067Z,93.20
2022-11-23T13:37:56.655Z,93.20
2022-11-23T13:40:34.463Z,93.10
2022-11-23T13:43:31.834Z,93.20
2022-11-23T13:46:30.237Z,93.20
2022-11-23T13:49:00.085Z,93.30
2022-11-23T13:51:35.024Z,93.10
2022-11-23T13:54:05.543Z,93.10
2022-11-23T13:56:36.647Z,93.20
2022-11-23T13:59:22.786Z,93.30
2022-11-23T14:02:22.591Z,93.10
2022-11-23T14:04:49.961Z,93.10
2022-11-23T14:07:26.370Z,93.10
2022-11-23T14:10:10.036Z,93.20
2022-11-23T14:12:58.776Z,93.20
2022-11-23T14:15:30.048Z,93.20
2022-11-23T14:18:21.783Z,93.10
2022-11-23T14:21:12.809Z,93.10
2022-11-23T14:24:17.904Z,93.20
2022-11-23T14:27:31.245Z,93.20
2022-11-23T14:30:06.024Z,93.10
2022-11-23T14:33:02.058Z,93.50
2022-11-23T14:35:49.161Z,93.20
2022-11-23T14:38:50.389Z,93.30
2022-11-23T14:41:23.613Z,93.30
2022-11-23T14:43:52.278Z,93.20
2022-11-23T14:46:22.539Z,93.30
2022-11-23T14:48:50.373Z,93.40
2022-11-23T14:51:23.149Z,93.40
2022-11-23T14:53:54.401Z,93.50
2022-11-23T14:56:27.518Z,93.40
2022-11-23T14:59:01.574Z,93.50
2022-11-23T15:01:29.079Z,93.30
2022-11-23T15:04:06.566Z,93.30
2022-11-23T15:06:42.354Z,93.30
2022-11-23T15:09:49.707Z,93.50
2022-11-23T15:12:23.425Z,93.50
2022-11-23T15:14:51.805Z,93.60
2022-11-23T15:17:21.400Z,93.70
2022-11-23T15:19:56.813Z,93.90
2022-11-23T15:22:25.099Z,94.00
2022-11-23T15:24:52.831Z,94.10
2022-11-23T15:27:29.129Z,94.10
2022-11-23T15:29:59.430Z,94.10
2022-11-23T15:32:32.532Z,94.00
2022-11-23T15:35:06.655Z,93.90
2022-11-23T15:37:41.014Z,94.30
2022-11-23T15:40:16.858Z,94.10
2022-11-23T15:42:45.598Z,94.20
2022-11-23T15:45:33.892Z,94.30
2022-11-23T15:48:10.295Z,94.30
2022-11-23T15:50:52.672Z,94.30
2022-11-23T15:53:24.612Z,94.50
2022-11-23T15:55:53.333Z,94.60
2022-11-23T15:58:21.853Z,94.60
2022-11-23T16:01:03.857Z,94.70
2022-11-23T16:04:01.108Z,94.60
2022-11-23T16:06:42.186Z,94.70
2022-11-23T16:09:53.800Z,94.70
2022-11-23T16:12:34.166Z,94.70
2022-11-23T16:15:30.720Z,94.80
2022-11-23T16:18:02.224Z,94.90
2022-11-23T16:20:29.968Z,95.20
2022-11-23T16:23:00.249Z,94.90
2022-11-23T16:25:33.563Z,95.00
2022-11-23T16:28:17.582Z,95.00
2022-11-23T16:30:48.950Z,95.10
2022-11-23T16:33:19.085Z,95.10
2022-11-23T16:35:48.138Z,95.40
2022-11-23T16:38:15.688Z,95.10
2022-11-23T16:40:44.278Z,95.40
2022-11-23T16:43:12.598Z,95.10
2022-11-23T16:45:45.216Z,95.10
2022-11-23T16:48:37.065Z,95.10
2022-11-23T16:51:05.195Z,95.00
2022-11-23T16:53:53.398Z,94.90
2022-11-23T16:56:24.056Z,94.90
2022-11-23T16:58:52.606Z,94.80
2022-11-23T17:01:24.351Z,94.80
2022-11-23T17:03:52.031Z,94.80
2022-11-23T17:06:23.043Z,94.90
2022-11-23T17:08:59.252Z,94.90
2022-11-23T17:11:28.527Z,95.00
2022-11-23T17:13:57.021Z,95.10
2022-11-23T17:16:26.645Z,95.10
2022-11-23T17:18:54.204Z,95.10
2022-11-23T17:21:21.641Z,95.20
2022-11-23T17:23:49.197Z,95.20
2022-11-23T17:26:38.758Z,95.30
2022-11-23T17:29:10.454Z,95.30
2022-11-23T17:31:37.828Z,95.30
2022-11-23T17:34:05.130Z,95.30
2022-11-23T17:36:32.546Z,95.40
2022-11-23T17:38:59.933Z,95.40
2022-11-23T17:41:27.206Z,95.40
2022-11-23T17:43:55.231Z,95.50
2022-11-23T17:46:24.048Z,95.60
2022-11-23T17:48:58.910Z,95.60
2022-11-23T17:51:26.401Z,95.70
2022-11-23T17:53:53.705Z,95.60
2022-11-23T17:56:25.983Z,95.60
2022-11-23T17:58:53.837Z,95.60
2022-11-23T18:01:22.388Z,95.70
2022-11-23T18:03:50.574Z,95.70
2022-11-23T18:06:21.129Z,95.70
2022-11-23T18:08:49.642Z,95.70
2022-11-23T18:11:17.754Z,95.70
2022-11-23T18:13:47.991Z,95.80
2022-11-23T18:16:16.243Z,95.70
2022-11-23T18:18:43.671Z,95.70
2022-11-23T18:21:12.619Z,95.80
2022-11-23T18:23:41.185Z,95.80
2022-11-23T18:26:20.875Z,95.80
2022-11-23T18:28:49.074Z,95.80
2022-11-23T18:31:17.183Z,95.80
2022-11-23T18:33:45.977Z,95.90
2022-11-23T18:36:14.049Z,95.80
2022-11-23T18:38:45.092Z,95.90
2022-11-23T18:41:16.045Z,95.90
2022-11-23T18:43:44.754Z,95.90
2022-11-23T18:46:18.937Z,95.90
2022-11-23T18:48:47.339Z,95.90
2022-11-23T18:51:15.936Z,95.90
2022-11-23T18:53:47.280Z,96.00
2022-11-23T18:56:14.566Z,96.00
2022-11-23T18:58:43.734Z,96.10
2022-11-23T19:01:17.671Z,96.00
2022-11-23T19:03:47.056Z,96.00
2022-11-23T19:06:15.482Z,96.00
2022-11-23T19:08:51.042Z,96.00
2022-11-23T19:11:23.047Z,96.10
2022-11-23T19:13:52.582Z,96.00
2022-11-23T19:16:22.353Z,96.10
2022-11-23T19:19:04.439Z,96.10
2022-11-23T19:21:34.168Z,96.10
2022-11-23T19:24:02.167Z,96.10
2022-11-23T19:26:30.409Z,96.20
2022-11-23T19:28:58.653Z,96.20
2022-11-23T19:31:30.655Z,96.20
2022-11-23T19:34:04.148Z,96.20
2022-11-23T19:36:33.343Z,96.20
2022-11-23T19:39:00.746Z,96.20
2022-11-23T19:41:30.767Z,96.20
2022-11-23T19:44:00.384Z,96.10
2022-11-23T19:46:29.140Z,96.10
2022-11-23T19:49:00.009Z,96.10
2022-11-23T19:51:27.953Z,96.10
2022-11-23T19:53:57.991Z,96.10
2022-11-23T19:56:27.586Z,96.10
2022-11-23T19:58:59.481Z,96.10
2022-11-23T20:01:32.471Z,96.10
2022-11-23T20:04:09.644Z,96.10
2022-11-23T20:06:42.073Z,96.00
2022-11-23T20:09:12.628Z,96.00
2022-11-23T20:11:40.945Z,96.10
2022-11-23T20:14:10.919Z,96.10
2022-11-23T20:16:38.521Z,96.20
2022-11-23T20:19:07.858Z,96.10
2022-11-23T20:21:36.484Z,96.10
2022-11-23T20:24:07.409Z,96.20
2022-11-23T20:26:38.614Z,96.20
2022-11-23T20:29:07.027Z,96.20
2022-11-23T20:31:35.691Z,96.20
2022-11-23T20:34:07.105Z,96.20
2022-11-23T20:36:37.404Z,96.30
2022-11-23T20:39:06.957Z,96.40
2022-11-23T20:41:36.260Z,96.30
2022-11-23T20:44:14.234Z,96.30
2022-11-23T20:49:30.417Z,96.40
2022-11-23T20:51:58.331Z,96.40
2022-11-23T20:54:25.582Z,96.30
2022-11-23T20:56:52.843Z,96.50
2022-11-23T20:59:20.592Z,96.20
2022-11-23T21:01:47.972Z,96.10
2022-11-23T21:04:15.393Z,96.10
2022-11-23T21:06:43.018Z,96.00
2022-11-23T21:09:11.111Z,96.00
2022-11-23T21:11:57.025Z,96.00
2022-11-23T21:14:27.890Z,96.10
2022-11-23T21:16:58.583Z,96.00
2022-11-23T21:19:34.650Z,96.00
2022-11-23T21:22:13.539Z,96.00
2022-11-23T21:24:41.565Z,96.00
2022-11-23T21:27:12.197Z,96.00
2022-11-23T21:29:39.568Z,96.00
2022-11-23T21:32:07.040Z,96.00
2022-11-23T21:34:34.591Z,96.00
2022-11-23T21:37:02.615Z,96.00
2022-11-23T21:39:31.017Z,96.00
2022-11-23T21:41:58.790Z,96.00
2022-11-23T21:44:26.757Z,96.00
2022-11-23T21:46:54.099Z,96.00
2022-11-23T21:49:21.889Z,96.00
2022-11-23T21:51:49.408Z,96.00
2022-11-23T21:54:16.758Z,95.90
2022-11-23T21:56:46.023Z,95.90
2022-11-23T21:59:14.260Z,95.90
2022-11-23T22:01:42.221Z,95.90
2022-11-23T22:04:15.306Z,96.00
2022-11-23T22:06:45.064Z,96.00
2022-11-23T22:09:13.153Z,96.00
2022-11-23T22:11:43.033Z,96.00
2022-11-23T22:14:15.591Z,96.00
2022-11-23T22:16:44.919Z,96.00
2022-11-23T22:19:14.228Z,96.00
2022-11-23T22:21:43.412Z,95.90
2022-11-23T22:24:13.527Z,95.90
2022-11-23T22:26:41.379Z,95.90
2022-11-23T22:29:09.826Z,95.90
2022-11-23T22:31:37.529Z,95.80
2022-11-23T22:34:07.254Z,95.90
2022-11-23T22:36:34.646Z,95.80
2022-11-23T22:39:04.987Z,95.80
2022-11-23T22:41:39.164Z,95.80
2022-11-23T22:44:08.554Z,95.80
2022-11-23T22:46:36.631Z,95.90
2022-11-23T22:49:04.692Z,95.80
2022-11-23T22:51:32.153Z,95.80
2022-11-23T22:54:00.943Z,95.80
2022-11-23T22:56:30.449Z,95.80
2022-11-23T22:58:57.956Z,95.80
2022-11-23T23:01:28.563Z,95.70
2022-11-23T23:03:57.326Z,95.70
2022-11-23T23:06:27.386Z,95.70
2022-11-23T23:08:57.181Z,95.70
2022-11-23T23:11:26.793Z,95.70
2022-11-23T23:13:54.474Z,95.60
2022-11-23T23:16:22.188Z,95.50
2022-11-23T23:18:49.974Z,95.50
2022-11-23T23:21:19.965Z,95.40
2022-11-23T23:23:49.646Z,95.30
2022-11-23T23:26:18.720Z,95.30
2022-11-23T23:28:46.653Z,95.30
2022-11-23T23:31:16.298Z,95.30
2022-11-23T23:33:47.083Z,95.20
2022-11-23T23:36:19.881Z,95.20
2022-11-23T23:38:47.401Z,95.20
2022-11-23T23:41:15.195Z,95.20
2022-11-23T23:43:42.661Z,95.20
2022-11-23T23:46:12.552Z,95.10
2022-11-23T23:48:40.664Z,95.10
2022-11-23T23:51:09.867Z,95.10
2022-11-23T23:53:37.559Z,95.10
2022-11-23T23:56:07.958Z,95.10
2022-11-23T23:58:36.082Z,95.10
